createdAt,value
2023-01-20T00:00:45.165Z,5.80
2023-01-20T00:03:14.750Z,5.83
2023-01-20T00:05:52.398Z,4.23
2023-01-20T00:08:20.269Z,7.10
2023-01-20T00:10:48.286Z,3.80
2023-01-20T00:13:16.260Z,5.33
2023-01-20T00:15:44.200Z,4.40
2023-01-20T00:18:12.151Z,3.60
2023-01-20T00:20:41.354Z,7.77
2023-01-20T00:23:11.501Z,4.80
2023-01-20T00:25:39.418Z,4.43
2023-01-20T00:28:07.355Z,6.50
2023-01-20T00:30:35.667Z,5.10
2023-01-20T00:33:03.569Z,4.80
2023-01-20T00:35:31.491Z,4.97
2023-01-20T00:38:00.730Z,6.57
2023-01-20T00:40:28.594Z,4.93
2023-01-20T00:42:56.397Z,4.60
2023-01-20T00:45:24.302Z,4.50
2023-01-20T00:47:52.190Z,4.33
2023-01-20T00:50:20.036Z,5.57
2023-01-20T00:52:47.901Z,4.47
2023-01-20T00:55:17.277Z,5.17
2023-01-20T00:57:45.121Z,4.37
2023-01-20T01:00:13.712Z,4.57
2023-01-20T01:02:41.947Z,5.53
2023-01-20T01:05:10.603Z,4.90
2023-01-20T01:07:38.696Z,8.20
2023-01-20T01:10:07.659Z,10.70
2023-01-20T01:12:36.977Z,5.20
2023-01-20T01:15:05.328Z,6.13
2023-01-20T01:17:33.129Z,5.30
2023-01-20T01:20:00.956Z,5.20
2023-01-20T01:22:28.839Z,5.10
2023-01-20T01:24:56.849Z,5.80
2023-01-20T01:27:29.010Z,5.10
2023-01-20T01:29:58.587Z,6.03
2023-01-20T01:32:26.370Z,4.70
2023-01-20T01:34:54.251Z,5.33
2023-01-20T01:37:22.255Z,6.00
2023-01-20T01:39:50.045Z,6.60
2023-01-20T01:42:20.605Z,8.53
2023-01-20T01:45:23.805Z,7.13
2023-01-20T01:47:58.490Z,6.77
2023-01-20T01:50:30.693Z,5.93
2023-01-20T01:52:58.766Z,5.93
2023-01-20T01:55:30.979Z,9.70
2023-01-20T01:58:00.823Z,6.23
2023-01-20T02:00:30.892Z,6.57
2023-01-20T02:02:59.157Z,9.00
2023-01-20T02:05:29.798Z,7.20
2023-01-20T02:07:59.539Z,7.90
2023-01-20T02:10:27.767Z,7.17
2023-01-20T02:12:56.022Z,9.43
2023-01-20T02:15:31.104Z,9.00
2023-01-20T02:18:16.999Z,9.13
2023-01-20T02:21:10.553Z,11.50
2023-01-20T02:24:02.904Z,8.90
2023-01-20T02:26:49.943Z,9.47
2023-01-20T02:29:48.386Z,12.50
2023-01-20T02:32:28.121Z,9.67
2023-01-20T02:35:01.848Z,9.70
2023-01-20T02:37:52.682Z,12.93
2023-01-20T02:40:31.420Z,11.00
2023-01-20T02:43:09.865Z,10.10
2023-01-20T02:45:45.297Z,8.80
2023-01-20T02:48:24.245Z,13.73
2023-01-20T02:50:57.411Z,12.73
2023-01-20T02:53:31.646Z,11.80
2023-01-20T02:56:00.417Z,12.67
2023-01-20T02:58:37.996Z,9.03
2023-01-20T03:01:12.672Z,11.17
2023-01-20T03:03:45.963Z,10.40
2023-01-20T03:06:19.576Z,10.97
2023-01-20T03:08:52.084Z,9.77
2023-01-20T03:11:20.975Z,10.00
2023-01-20T03:13:53.850Z,12.63
2023-01-20T03:16:24.701Z,9.13
2023-01-20T03:18:55.596Z,9.93
2023-01-20T03:21:24.457Z,10.63
2023-01-20T03:23:54.713Z,9.87
2023-01-20T03:26:23.941Z,7.07
2023-01-20T03:28:51.993Z,7.53
2023-01-20T03:31:23.291Z,7.40
2023-01-20T03:33:55.815Z,8.97
2023-01-20T03:36:26.351Z,9.23
2023-01-20T03:38:55.690Z,8.53
2023-01-20T03:41:31.249Z,7.50
2023-01-20T03:44:09.900Z,7.30
2023-01-20T03:46:43.669Z,8.33
2023-01-20T03:49:19.288Z,9.53
2023-01-20T03:51:55.397Z,9.90
2023-01-20T03:54:28.604Z,11.83
2023-01-20T03:57:04.275Z,8.53
2023-01-20T03:59:35.881Z,9.87
2023-01-20T04:02:07.229Z,16.40
2023-01-20T04:04:39.604Z,17.30
2023-01-20T04:07:08.585Z,17.40
2023-01-20T04:09:40.149Z,16.30
2023-01-20T04:12:08.335Z,16.40
2023-01-20T04:14:36.300Z,12.87
2023-01-20T04:17:07.296Z,12.60
2023-01-20T04:19:36.631Z,13.77
2023-01-20T04:22:09.813Z,12.20
2023-01-20T04:24:44.041Z,11.97
2023-01-20T04:27:11.917Z,10.43
2023-01-20T04:29:41.483Z,16.40
2023-01-20T04:32:12.406Z,14.70
2023-01-20T04:34:41.623Z,13.40
2023-01-20T04:37:09.524Z,9.63
2023-01-20T04:39:37.464Z,10.03
2023-01-20T04:42:05.415Z,11.43
2023-01-20T04:44:33.229Z,11.07
2023-01-20T04:47:01.092Z,10.03
2023-01-20T04:49:29.164Z,14.60
2023-01-20T04:51:58.463Z,13.60
2023-01-20T04:54:26.414Z,11.53
2023-01-20T04:56:54.616Z,13.83
2023-01-20T04:59:22.757Z,9.90
2023-01-20T05:01:50.923Z,14.00
2023-01-20T05:04:19.000Z,14.20
2023-01-20T05:06:47.075Z,12.27
2023-01-20T05:09:17.400Z,16.33
2023-01-20T05:11:45.442Z,12.30
2023-01-20T05:14:13.720Z,11.93
2023-01-20T05:16:41.694Z,10.10
2023-01-20T05:19:09.601Z,12.10
2023-01-20T05:21:37.864Z,10.97
2023-01-20T05:24:06.693Z,11.87
2023-01-20T05:26:36.157Z,15.13
2023-01-20T05:29:04.048Z,13.93
2023-01-20T05:31:32.614Z,11.33
2023-01-20T05:34:00.561Z,12.07
2023-01-20T05:36:29.224Z,11.77
2023-01-20T05:38:57.081Z,11.90
2023-01-20T05:41:24.921Z,14.70
2023-01-20T05:43:55.643Z,10.67
2023-01-20T05:46:23.560Z,10.13
2023-01-20T05:48:51.489Z,11.73
2023-01-20T05:51:19.629Z,15.33
2023-01-20T05:53:47.434Z,13.60
2023-01-20T05:56:16.110Z,12.33
2023-01-20T05:58:44.544Z,11.27
2023-01-20T06:01:15.069Z,11.23
2023-01-20T06:03:43.513Z,15.30
2023-01-20T06:06:15.613Z,12.60
2023-01-20T06:08:44.011Z,13.33
2023-01-20T06:11:12.112Z,13.67
2023-01-20T06:13:40.344Z,10.60
2023-01-20T06:16:08.753Z,11.23
2023-01-20T06:18:38.115Z,13.50
2023-01-20T06:21:06.163Z,10.80
2023-01-20T06:23:34.184Z,12.50
2023-01-20T06:26:03.429Z,12.93
2023-01-20T06:28:32.930Z,15.60
2023-01-20T06:31:05.842Z,15.53
2023-01-20T06:33:34.550Z,11.67
2023-01-20T06:36:04.097Z,13.93
2023-01-20T06:38:33.941Z,15.43
2023-01-20T06:41:03.322Z,13.40
2023-01-20T06:43:32.540Z,15.10
2023-01-20T06:46:01.219Z,12.90
2023-01-20T06:48:30.036Z,14.73
2023-01-20T06:51:03.419Z,12.83
2023-01-20T06:53:31.390Z,12.77
2023-01-20T06:56:01.049Z,17.03
2023-01-20T06:58:30.979Z,14.60
2023-01-20T07:01:00.065Z,15.30
2023-01-20T07:03:27.928Z,15.87
2023-01-20T07:05:59.708Z,14.10
2023-01-20T07:08:29.327Z,15.30
2023-01-20T07:10:57.338Z,15.73
2023-01-20T07:13:25.226Z,20.10
2023-01-20T07:15:53.909Z,17.83
2023-01-20T07:18:21.782Z,18.63
2023-01-20T07:20:54.468Z,16.33
2023-01-20T07:23:22.462Z,20.60
2023-01-20T07:25:59.794Z,15.73
2023-01-20T07:28:28.074Z,16.60
2023-01-20T07:30:56.067Z,17.00
2023-01-20T07:33:24.107Z,20.37
2023-01-20T07:35:54.432Z,18.63
2023-01-20T07:38:22.482Z,15.10
2023-01-20T07:40:50.417Z,20.17
2023-01-20T07:43:19.791Z,18.30
2023-01-20T07:45:47.704Z,25.27
2023-01-20T07:48:15.591Z,19.47
2023-01-20T07:50:43.573Z,21.97
2023-01-20T07:53:11.395Z,21.87
2023-01-20T07:55:39.352Z,20.87
2023-01-20T07:58:07.195Z,20.77
2023-01-20T08:00:36.463Z,20.90
2023-01-20T08:03:04.430Z,18.23
2023-01-20T08:05:33.331Z,17.63
2023-01-20T08:08:01.230Z,19.20
2023-01-20T08:10:29.305Z,19.20
2023-01-20T08:12:57.225Z,15.13
2023-01-20T08:15:25.136Z,16.53
2023-01-20T08:17:56.122Z,16.03
2023-01-20T08:20:24.289Z,18.60
2023-01-20T08:22:52.182Z,20.20
2023-01-20T08:25:20.357Z,17.63
2023-01-20T08:27:49.899Z,14.30
2023-01-20T08:30:18.341Z,17.40
2023-01-20T08:32:46.424Z,15.37
2023-01-20T08:35:18.800Z,18.73
2023-01-20T08:37:46.794Z,14.60
2023-01-20T08:40:15.397Z,14.03
2023-01-20T08:42:43.404Z,14.90
2023-01-20T08:45:11.697Z,16.73
2023-01-20T08:47:44.329Z,15.67
2023-01-20T08:50:13.799Z,14.87
2023-01-20T08:52:43.267Z,16.27
2023-01-20T08:55:12.040Z,14.37
2023-01-20T08:57:40.756Z,17.43
2023-01-20T09:00:10.945Z,14.30
2023-01-20T09:02:39.275Z,17.27
2023-01-20T09:05:08.809Z,16.90
2023-01-20T09:07:37.143Z,16.60
2023-01-20T09:10:07.511Z,17.67
2023-01-20T09:12:35.481Z,15.83
2023-01-20T09:15:07.468Z,12.83
2023-01-20T09:17:35.973Z,17.43
2023-01-20T09:20:03.948Z,15.13
2023-01-20T09:22:31.862Z,19.07
2023-01-20T09:25:00.414Z,15.20
2023-01-20T09:27:29.761Z,14.27
2023-01-20T09:29:57.715Z,17.40
2023-01-20T09:32:25.636Z,15.30
2023-01-20T09:34:53.584Z,16.60
2023-01-20T09:37:39.169Z,16.20
2023-01-20T09:40:30.204Z,15.97
2023-01-20T09:43:23.861Z,16.23
2023-01-20T09:45:56.360Z,14.83
2023-01-20T09:48:49.656Z,16.33
2023-01-20T09:51:42.936Z,15.00
2023-01-20T09:54:17.465Z,16.37
2023-01-20T09:56:48.594Z,14.80
2023-01-20T09:59:25.911Z,15.53
2023-01-20T10:01:57.700Z,16.40
2023-01-20T10:04:32.918Z,15.73
2023-01-20T10:07:09.709Z,20.73
2023-01-20T10:09:43.638Z,19.70
2023-01-20T10:12:18.009Z,14.27
2023-01-20T10:14:51.106Z,13.67
2023-01-20T10:17:24.001Z,16.17
2023-01-20T10:19:58.879Z,15.20
2023-01-20T10:22:33.323Z,14.50
2023-01-20T10:25:06.658Z,13.87
2023-01-20T10:27:40.290Z,14.60
2023-01-20T10:30:12.633Z,18.03
2023-01-20T10:32:46.957Z,16.60
2023-01-20T10:35:20.135Z,17.87
2023-01-20T10:37:48.032Z,16.10
2023-01-20T10:40:26.351Z,19.17
2023-01-20T10:42:58.523Z,19.07
2023-01-20T10:45:39.355Z,16.37
2023-01-20T10:48:21.172Z,19.73
2023-01-20T10:50:54.066Z,15.77
2023-01-20T10:53:48.405Z,16.90
2023-01-20T10:56:35.370Z,11.50
2023-01-20T10:59:13.799Z,12.13
2023-01-20T11:01:46.219Z,9.87
2023-01-20T11:04:20.517Z,8.40
2023-01-20T11:06:52.589Z,8.77
2023-01-20T11:09:30.674Z,11.30
2023-01-20T11:12:00.590Z,10.13
2023-01-20T11:14:28.643Z,10.23
2023-01-20T11:17:04.556Z,12.03
2023-01-20T11:19:48.030Z,9.30
2023-01-20T11:22:20.677Z,10.83
2023-01-20T11:24:48.905Z,11.20
2023-01-20T11:27:21.505Z,12.63
2023-01-20T11:29:52.136Z,12.13
2023-01-20T11:32:33.554Z,12.67
2023-01-20T11:35:04.066Z,10.50
2023-01-20T11:37:40.389Z,10.70
2023-01-20T11:40:21.452Z,9.20
2023-01-20T11:42:51.176Z,12.37
2023-01-20T11:45:30.293Z,11.87
2023-01-20T11:48:16.842Z,11.40
2023-01-20T11:50:50.097Z,9.87
2023-01-20T11:53:23.863Z,11.83
2023-01-20T11:55:54.619Z,10.77
2023-01-20T11:58:24.839Z,11.10
2023-01-20T12:00:59.969Z,10.20
2023-01-20T12:03:53.531Z,12.37
2023-01-20T12:06:26.594Z,11.10
2023-01-20T12:09:00.568Z,14.60
2023-01-20T12:11:31.754Z,11.83
2023-01-20T12:14:28.494Z,13.10
2023-01-20T12:17:15.506Z,13.13
2023-01-20T12:20:00.257Z,9.73
2023-01-20T12:22:36.596Z,10.27
2023-01-20T12:25:14.607Z,10.20
2023-01-20T12:27:47.702Z,11.83
2023-01-20T12:30:37.755Z,13.00
2023-01-20T12:33:06.648Z,9.90
2023-01-20T12:35:43.395Z,11.80
2023-01-20T12:38:19.832Z,10.80
2023-01-20T12:40:49.785Z,14.20
2023-01-20T12:43:41.924Z,10.33
2023-01-20T12:46:29.172Z,9.93
2023-01-20T12:49:10.921Z,11.00
2023-01-20T12:51:52.305Z,11.60
2023-01-20T12:54:49.358Z,12.10
2023-01-20T12:57:40.353Z,10.57
2023-01-20T13:00:42.076Z,11.50
2023-01-20T13:03:40.636Z,12.87
2023-01-20T13:06:32.297Z,11.57
2023-01-20T13:09:16.690Z,14.13
2023-01-20T13:11:59.138Z,12.30
2023-01-20T13:14:40.546Z,13.07
2023-01-20T13:17:19.454Z,12.20
2023-01-20T13:19:49.467Z,12.83
2023-01-20T13:22:20.466Z,13.47
2023-01-20T13:24:52.795Z,17.03
2023-01-20T13:27:25.958Z,14.70
2023-01-20T13:29:56.685Z,14.60
2023-01-20T13:32:29.601Z,13.20
2023-01-20T13:34:58.557Z,14.67
2023-01-20T13:37:37.572Z,17.60
2023-01-20T13:40:50.273Z,13.37
2023-01-20T13:43:46.862Z,15.27
2023-01-20T13:46:47.384Z,14.50
2023-01-20T13:49:22.862Z,13.60
2023-01-20T13:51:50.912Z,14.23
2023-01-20T13:54:44.707Z,15.00
2023-01-20T13:57:36.961Z,14.50
2023-01-20T14:00:19.229Z,16.67
2023-01-20T14:02:48.833Z,19.17
2023-01-20T14:05:32.222Z,15.70
2023-01-20T14:08:00.788Z,14.73
2023-01-20T14:10:29.184Z,13.40
2023-01-20T14:12:58.394Z,18.40
2023-01-20T14:15:33.698Z,16.90
2023-01-20T14:18:02.277Z,20.57
2023-01-20T14:20:31.438Z,16.10
2023-01-20T14:23:24.314Z,17.67
2023-01-20T14:26:02.415Z,18.60
2023-01-20T14:28:32.094Z,22.50
2023-01-20T14:31:34.351Z,21.07
2023-01-20T14:34:17.934Z,18.83
2023-01-20T14:36:45.923Z,22.10
2023-01-20T14:39:20.361Z,18.13
2023-01-20T14:41:49.959Z,16.97
2023-01-20T14:44:21.698Z,19.60
2023-01-20T14:46:51.248Z,23.20
2023-01-20T14:49:22.404Z,18.93
2023-01-20T14:51:52.043Z,19.10
2023-01-20T14:54:38.694Z,20.47
2023-01-20T14:57:26.345Z,21.50
2023-01-20T15:00:05.552Z,17.00
2023-01-20T15:02:36.577Z,16.67
2023-01-20T15:05:20.112Z,17.63
2023-01-20T15:07:48.167Z,20.10
2023-01-20T15:10:18.274Z,18.07
2023-01-20T15:12:55.829Z,17.27
2023-01-20T15:15:30.419Z,12.20
2023-01-20T15:18:20.078Z,17.97
2023-01-20T15:21:00.870Z,20.93
2023-01-20T15:23:35.554Z,16.83
2023-01-20T15:26:09.630Z,17.23
2023-01-20T15:28:42.859Z,17.23
2023-01-20T15:31:15.036Z,17.83
2023-01-20T15:33:43.440Z,16.43
2023-01-20T15:36:21.585Z,17.47
2023-01-20T15:38:49.870Z,12.83
2023-01-20T15:41:18.073Z,18.47
2023-01-20T15:43:46.298Z,16.77
2023-01-20T15:46:18.487Z,16.20
2023-01-20T15:48:47.494Z,15.80
2023-01-20T15:51:17.292Z,13.83
2023-01-20T15:53:46.517Z,15.83
2023-01-20T15:56:19.903Z,14.77
2023-01-20T15:58:48.685Z,18.07
2023-01-20T16:01:20.234Z,17.50
2023-01-20T16:03:48.264Z,20.47
2023-01-20T16:06:17.893Z,16.80
2023-01-20T16:08:47.710Z,15.37
2023-01-20T16:11:16.531Z,17.23
2023-01-20T16:13:44.625Z,17.67
2023-01-20T16:16:15.200Z,16.27
2023-01-20T16:18:44.945Z,20.33
2023-01-20T16:21:14.649Z,15.57
2023-01-20T16:23:43.389Z,16.60
2023-01-20T16:26:22.543Z,16.33
2023-01-20T16:28:50.631Z,22.70
2023-01-20T16:31:19.062Z,16.43
2023-01-20T16:33:48.604Z,19.53
2023-01-20T16:36:18.270Z,18.57
2023-01-20T16:38:46.800Z,17.50
2023-01-20T16:41:16.540Z,16.50
2023-01-20T16:43:44.840Z,21.70
2023-01-20T16:46:15.471Z,18.40
2023-01-20T16:48:43.417Z,18.90
2023-01-20T16:51:13.868Z,19.23
2023-01-20T16:53:41.813Z,19.40
2023-01-20T16:56:14.050Z,22.50
2023-01-20T16:58:42.095Z,19.27
2023-01-20T17:01:12.249Z,22.43
2023-01-20T17:03:40.783Z,17.67
2023-01-20T17:06:17.515Z,16.70
2023-01-20T17:08:45.894Z,20.77
2023-01-20T17:11:18.321Z,18.60
2023-01-20T17:13:46.869Z,16.10
2023-01-20T17:16:17.068Z,19.43
2023-01-20T17:18:45.825Z,16.80
2023-01-20T17:21:15.464Z,16.67
2023-01-20T17:23:43.500Z,19.17
2023-01-20T17:26:11.443Z,18.10
2023-01-20T17:28:39.325Z,18.57
2023-01-20T17:31:08.188Z,14.87
2023-01-20T17:33:36.044Z,15.97
2023-01-20T17:36:06.271Z,13.23
2023-01-20T17:38:36.153Z,16.50
2023-01-20T17:41:05.089Z,15.87
2023-01-20T17:43:33.845Z,14.93
2023-01-20T17:46:02.228Z,18.20
2023-01-20T17:48:30.257Z,13.20
2023-01-20T17:50:59.364Z,16.87
2023-01-20T17:53:27.707Z,18.77
2023-01-20T17:56:10.962Z,14.23
2023-01-20T17:58:40.820Z,21.37
2023-01-20T18:01:14.466Z,17.60
2023-01-20T18:03:44.049Z,13.23
2023-01-20T18:06:14.206Z,17.10
2023-01-20T18:08:42.565Z,19.57
2023-01-20T18:11:15.063Z,16.43
2023-01-20T18:13:45.965Z,18.27
2023-01-20T18:16:15.990Z,18.93
2023-01-20T18:18:44.998Z,17.13
2023-01-20T18:21:14.912Z,14.53
2023-01-20T18:23:43.563Z,14.77
2023-01-20T18:26:14.873Z,16.00
2023-01-20T18:28:43.235Z,17.87
2023-01-20T18:31:13.725Z,15.20
2023-01-20T18:33:44.311Z,16.20
2023-01-20T18:36:18.447Z,15.90
2023-01-20T18:38:50.908Z,16.00
2023-01-20T18:41:20.738Z,16.10
2023-01-20T18:43:49.336Z,16.70
2023-01-20T18:46:17.876Z,17.90
2023-01-20T18:48:47.661Z,16.47
2023-01-20T18:51:17.684Z,18.17
2023-01-20T18:53:47.067Z,16.70
2023-01-20T18:56:16.563Z,17.03
2023-01-20T18:58:47.408Z,16.97
2023-01-20T19:01:18.050Z,18.17
2023-01-20T19:03:46.765Z,16.63
2023-01-20T19:06:16.781Z,17.83
2023-01-20T19:08:46.518Z,19.13
2023-01-20T19:11:17.690Z,18.63
2023-01-20T19:13:48.677Z,16.00
2023-01-20T19:16:17.537Z,15.43
2023-01-20T19:18:50.528Z,17.07
2023-01-20T19:21:18.454Z,19.37
2023-01-20T19:23:50.619Z,17.00
2023-01-20T19:26:19.671Z,14.07
2023-01-20T19:28:56.179Z,15.23
2023-01-20T19:31:24.540Z,17.20
2023-01-20T19:33:52.751Z,14.30
2023-01-20T19:36:21.164Z,13.30
2023-01-20T19:38:49.119Z,14.10
2023-01-20T19:41:18.818Z,12.67
2023-01-20T19:43:48.454Z,14.37
2023-01-20T19:46:18.795Z,13.27
2023-01-20T19:48:47.089Z,13.70
2023-01-20T19:51:17.023Z,14.93
2023-01-20T19:53:46.612Z,17.03
2023-01-20T19:56:16.640Z,14.13
2023-01-20T19:58:45.684Z,12.00
2023-01-20T20:01:18.239Z,15.87
2023-01-20T20:03:46.792Z,14.83
2023-01-20T20:06:29.584Z,12.40
2023-01-20T20:08:59.675Z,11.63
2023-01-20T20:11:27.917Z,13.70
2023-01-20T20:13:56.919Z,14.47
2023-01-20T20:16:28.057Z,10.17
2023-01-20T20:18:57.293Z,11.40
2023-01-20T20:21:25.492Z,10.20
2023-01-20T20:23:54.657Z,10.47
2023-01-20T20:26:23.545Z,10.33
2023-01-20T20:28:52.209Z,11.03
2023-01-20T20:31:22.207Z,8.10
2023-01-20T20:33:51.509Z,10.53
2023-01-20T20:36:19.355Z,8.73
2023-01-20T20:38:51.235Z,7.83
2023-01-20T20:41:19.676Z,10.67
2023-01-20T20:43:47.565Z,9.70
2023-01-20T20:46:16.764Z,11.30
2023-01-20T20:48:44.618Z,7.93
2023-01-20T20:51:15.880Z,8.37
2023-01-20T20:53:44.403Z,8.27
2023-01-20T20:56:14.394Z,9.97
2023-01-20T20:59:00.113Z,8.53
2023-01-20T21:01:30.421Z,9.17
2023-01-20T21:04:00.338Z,11.47
2023-01-20T21:06:30.839Z,9.50
2023-01-20T21:08:59.532Z,8.90
2023-01-20T21:11:27.717Z,10.80
2023-01-20T21:13:55.971Z,6.80
2023-01-20T21:16:25.825Z,7.63
2023-01-20T21:18:56.251Z,7.30
2023-01-20T21:21:25.274Z,9.40
2023-01-20T21:23:55.946Z,10.17
2023-01-20T21:26:24.857Z,9.20
2023-01-20T21:28:53.969Z,10.97
2023-01-20T21:31:26.510Z,10.10
2023-01-20T21:33:58.216Z,15.33
2023-01-20T21:36:27.130Z,14.27
2023-01-20T21:38:56.424Z,10.00
2023-01-20T21:41:24.434Z,9.97
2023-01-20T21:44:09.820Z,11.97
2023-01-20T21:46:40.127Z,12.27
2023-01-20T21:49:25.771Z,8.33
2023-01-20T21:52:12.085Z,10.23
2023-01-20T21:54:41.640Z,11.27
2023-01-20T21:57:10.143Z,9.57
2023-01-20T21:59:38.297Z,9.77
2023-01-20T22:02:06.420Z,13.57
2023-01-20T22:04:35.185Z,10.27
2023-01-20T22:07:03.078Z,11.83
2023-01-20T22:09:31.113Z,9.20
2023-01-20T22:12:00.542Z,10.13
2023-01-20T22:14:28.419Z,12.40
2023-01-20T22:16:56.318Z,11.60
2023-01-20T22:19:24.316Z,10.33
2023-01-20T22:21:52.217Z,11.67
2023-01-20T22:24:20.166Z,12.77
2023-01-20T22:26:48.565Z,10.50
2023-01-20T22:29:18.369Z,11.97
2023-01-20T22:31:48.103Z,9.33
2023-01-20T22:34:16.296Z,9.70
2023-01-20T22:36:44.961Z,9.67
2023-01-20T22:39:13.392Z,10.70
2023-01-20T22:41:41.338Z,13.63
2023-01-20T22:44:09.604Z,12.40
2023-01-20T22:46:38.812Z,13.93
2023-01-20T22:49:06.639Z,11.23
2023-01-20T22:51:34.567Z,15.77
2023-01-20T22:54:02.624Z,18.13
2023-01-20T22:56:32.741Z,11.40
2023-01-20T22:59:01.659Z,12.57
2023-01-20T23:01:31.938Z,11.30
2023-01-20T23:04:03.462Z,12.07
2023-01-20T23:06:33.717Z,14.37
2023-01-20T23:09:03.466Z,11.07
2023-01-20T23:11:31.597Z,16.97
2023-01-20T23:14:00.179Z,13.10
2023-01-20T23:16:28.350Z,13.73
2023-01-20T23:18:56.820Z,9.27
2023-01-20T23:21:26.251Z,11.90
2023-01-20T23:23:55.246Z,9.60
2023-01-20T23:26:25.424Z,9.30
2023-01-20T23:28:55.159Z,10.27
2023-01-20T23:31:24.191Z,10.23
2023-01-20T23:33:55.585Z,12.17
2023-01-20T23:36:28.092Z,9.93
2023-01-20T23:38:57.669Z,12.80
2023-01-20T23:41:28.030Z,11.53
2023-01-20T23:43:56.484Z,12.57
2023-01-20T23:46:24.397Z,9.87
2023-01-20T23:48:52.254Z,10.50
2023-01-20T23:51:20.169Z,11.67
2023-01-20T23:53:49.625Z,10.53
2023-01-20T23:56:19.849Z,13.33
2023-01-20T23:58:48.252Z,10.40
